Pirapora, Brazil
Current Conditions -  °F | °C
As of 9:00 PM on Thursday 27 Nov 2014 (Local Time) from SBMK Reporting Station
Broken Clouds Broken Clouds  
Wind Chill: 77°   Ceiling: 10000
Heat Index: 79°   Visibility: 6mi
Dew Point: 66°   Wind: 0mph
Humidity: 69%   Direction: NA
Pressure: 29.94"   Gusts: NA
Location:  17.33°S, 44.93°W
Report Text: SBMK 272300Z 00000KT 9999 SCT035 BKN100 25/19 Q1014
Loading
Personal Weather Stations






























Interactive Weather Map New forecast layout! Learn more

10-Day Weather Forecast

Advertisements
Track Severe Weather on mobile